createdAt,value
2019-02-06T00:02:00.393Z,60.50
2019-02-06T00:04:30.357Z,63.10
2019-02-06T00:07:00.259Z,93.25
2019-02-06T00:09:49.875Z,79.12
2019-02-06T00:12:59.122Z,59.40
2019-02-06T00:15:29.369Z,63.28
2019-02-06T00:17:59.195Z,67.42
2019-02-06T00:20:49.024Z,67.55
2019-02-06T00:23:38.398Z,63.10
2019-02-06T00:26:08.347Z,78.33
2019-02-06T00:28:57.703Z,53.30
2019-02-06T00:31:47.161Z,54.08
2019-02-06T00:34:17.581Z,52.33
2019-02-06T00:36:47.634Z,54.53
2019-02-06T00:39:17.863Z,62.20
2019-02-06T00:41:47.762Z,56.10
2019-02-06T00:44:18.078Z,51.48
2019-02-06T00:47:07.786Z,52.67
2019-02-06T00:49:57.286Z,55.70
2019-02-06T00:52:27.283Z,57.30
2019-02-06T00:54:57.669Z,57.65
2019-02-06T00:57:47.390Z,52.85
2019-02-06T01:00:36.757Z,56.80
2019-02-06T01:03:26.105Z,57.53
2019-02-06T01:06:15.384Z,60.63
2019-02-06T01:08:45.527Z,59.67
2019-02-06T01:11:15.367Z,62.33
2019-02-06T01:14:04.879Z,59.85
2019-02-06T01:16:54.565Z,56.10
2019-02-06T01:19:43.913Z,55.43
2019-02-06T01:22:33.359Z,47.45
2019-02-06T01:25:22.717Z,64.70
2019-02-06T01:28:12.187Z,47.08
2019-02-06T01:34:14.747Z,49.00
2019-02-06T01:37:04.035Z,55.40
2019-02-06T01:39:53.386Z,56.25
2019-02-06T01:42:42.763Z,46.35
2019-02-06T01:45:25.207Z,46.85
2019-02-06T01:48:15.169Z,46.55
2019-02-06T01:51:04.725Z,57.85
2019-02-06T01:53:54.060Z,47.78
2019-02-06T01:56:24.324Z,61.40
2019-02-06T01:59:13.676Z,46.77
2019-02-06T02:02:03.091Z,42.58
2019-02-06T02:04:33.106Z,51.25
2019-02-06T02:07:22.432Z,35.03
2019-02-06T02:10:33.540Z,46.68
2019-02-06T02:13:22.834Z,41.83
2019-02-06T02:16:12.462Z,36.70
2019-02-06T02:19:01.825Z,48.63
2019-02-06T02:21:51.257Z,54.20
2019-02-06T02:24:21.101Z,45.78
2019-02-06T02:27:10.912Z,46.42
2019-02-06T02:30:00.231Z,42.38
2019-02-06T02:32:30.465Z,52.43
2019-02-06T02:35:19.762Z,46.48
2019-02-06T02:38:09.205Z,49.85
2019-02-06T02:40:39.031Z,40.28
2019-02-06T02:43:28.659Z,48.08
2019-02-06T02:46:18.016Z,50.00
2019-02-06T02:48:48.016Z,51.15
2019-02-06T02:51:17.943Z,39.25
2019-02-06T02:53:47.777Z,48.40
2019-02-06T02:56:17.616Z,44.70
2019-02-06T02:59:07.056Z,46.90
2019-02-06T03:02:17.238Z,54.63
2019-02-06T03:04:54.138Z,49.40
2019-02-06T03:07:45.668Z,47.55
2019-02-06T03:10:34.920Z,56.18
2019-02-06T03:13:24.876Z,49.30
2019-02-06T03:16:15.761Z,43.02
2019-02-06T03:19:05.203Z,51.68
2019-02-06T03:21:54.512Z,56.50
2019-02-06T03:24:43.809Z,48.50
2019-02-06T03:27:33.081Z,49.38
2019-02-06T03:30:22.745Z,47.35
2019-02-06T03:32:52.605Z,52.65
2019-02-06T03:35:42.066Z,47.43
2019-02-06T03:38:31.738Z,55.52
2019-02-06T03:41:01.657Z,46.13
2019-02-06T03:43:31.730Z,54.73
2019-02-06T03:46:01.737Z,56.90
2019-02-06T03:48:51.080Z,56.35
2019-02-06T03:51:20.924Z,42.88
2019-02-06T03:53:50.752Z,51.53
2019-02-06T03:56:20.547Z,53.40
2019-02-06T03:58:50.336Z,53.98
2019-02-06T04:01:39.716Z,53.60
2019-02-06T04:04:29.000Z,51.80
2019-02-06T04:07:18.259Z,64.62
2019-02-06T04:10:09.423Z,51.25
2019-02-06T04:12:58.978Z,54.75
2019-02-06T04:15:28.769Z,53.08
2019-02-06T04:21:06.941Z,55.17
2019-02-06T04:23:36.806Z,51.05
2019-02-06T04:26:26.098Z,52.15
2019-02-06T04:29:15.424Z,46.25
2019-02-06T04:32:04.886Z,60.45
2019-02-06T04:34:34.649Z,50.40
2019-02-06T04:37:24.247Z,46.42
2019-02-06T04:40:24.265Z,53.45
2019-02-06T04:43:13.573Z,53.25
2019-02-06T04:45:56.312Z,52.25
2019-02-06T04:48:45.793Z,52.85
2019-02-06T04:51:35.306Z,48.28
2019-02-06T04:54:24.657Z,52.30
2019-02-06T04:57:13.979Z,48.38
2019-02-06T04:59:43.924Z,47.67
2019-02-06T05:02:13.946Z,42.20
2019-02-06T05:05:23.189Z,35.78
2019-02-06T05:07:53.130Z,51.05
2019-02-06T05:10:23.007Z,44.65
2019-02-06T05:12:52.866Z,52.53
2019-02-06T05:15:42.293Z,49.08
2019-02-06T05:18:31.795Z,49.18
2019-02-06T05:21:21.025Z,58.17
2019-02-06T05:24:10.333Z,46.60
2019-02-06T05:26:59.758Z,55.88
2019-02-06T05:29:49.076Z,53.30
2019-02-06T05:32:42.812Z,51.05
2019-02-06T05:35:29.115Z,50.28
2019-02-06T05:38:18.880Z,47.48
2019-02-06T05:41:08.304Z,44.45
2019-02-06T05:43:51.083Z,46.42
2019-02-06T05:46:40.844Z,45.67
2019-02-06T05:49:30.376Z,60.35
2019-02-06T05:52:00.475Z,48.40
2019-02-06T05:54:30.360Z,49.13
2019-02-06T05:57:00.185Z,44.45
2019-02-06T05:59:30.166Z,46.40
2019-02-06T06:02:00.084Z,52.20
2019-02-06T06:04:49.452Z,45.05
2019-02-06T06:07:45.161Z,56.13
2019-02-06T06:10:49.306Z,46.42
2019-02-06T06:13:19.416Z,56.45
2019-02-06T06:19:04.154Z,47.90
2019-02-06T06:21:57.381Z,51.75
2019-02-06T06:24:31.026Z,46.08
2019-02-06T06:27:01.152Z,51.50
2019-02-06T06:29:36.366Z,56.70
2019-02-06T06:32:25.837Z,49.00
2019-02-06T06:34:56.886Z,59.90
2019-02-06T06:37:57.607Z,45.25
2019-02-06T06:41:00.849Z,51.15
2019-02-06T06:43:32.318Z,63.60
2019-02-06T06:46:21.102Z,49.45
2019-02-06T06:49:14.373Z,48.55
2019-02-06T06:51:52.211Z,46.15
2019-02-06T06:55:05.763Z,54.45
2019-02-06T06:57:58.049Z,48.75
2019-02-06T07:01:27.130Z,50.12
2019-02-06T07:07:31.534Z,54.67
2019-02-06T07:10:40.389Z,58.05
2019-02-06T07:13:10.468Z,61.13
2019-02-06T07:16:00.496Z,45.88
2019-02-06T07:18:49.967Z,54.30
2019-02-06T07:21:20.132Z,52.75
2019-02-06T07:23:50.330Z,59.27
2019-02-06T07:26:20.370Z,44.13
2019-02-06T07:29:11.901Z,51.83
2019-02-06T07:32:02.729Z,54.98
2019-02-06T07:34:52.699Z,54.18
2019-02-06T07:37:23.523Z,58.15
2019-02-06T07:39:53.595Z,57.75
2019-02-06T07:42:23.513Z,58.40
2019-02-06T07:47:56.386Z,43.83
2019-02-06T07:50:37.139Z,54.63
2019-02-06T07:53:27.753Z,49.65
2019-02-06T07:56:17.235Z,38.58
2019-02-06T07:58:47.238Z,46.02
2019-02-06T08:02:16.902Z,49.03
2019-02-06T08:05:33.914Z,45.58
2019-02-06T08:08:04.578Z,49.27
2019-02-06T08:10:34.751Z,49.80
2019-02-06T08:13:05.938Z,50.70
2019-02-06T08:15:57.058Z,51.77
2019-02-06T08:18:27.134Z,45.88
2019-02-06T08:21:16.781Z,54.35
2019-02-06T08:23:46.950Z,43.85
2019-02-06T08:26:36.603Z,56.70
2019-02-06T08:29:07.663Z,45.95
2019-02-06T08:31:57.537Z,45.85
2019-02-06T08:34:28.166Z,46.08
2019-02-06T08:36:58.100Z,48.68
2019-02-06T08:39:47.679Z,47.58
2019-02-06T08:42:37.186Z,40.17
2019-02-06T08:45:22.685Z,48.65
2019-02-06T08:48:12.196Z,43.55
2019-02-06T08:51:26.282Z,46.95
2019-02-06T08:54:02.736Z,35.38
2019-02-06T08:56:39.429Z,45.48
2019-02-06T08:59:12.218Z,37.65
2019-02-06T09:01:50.314Z,40.05
2019-02-06T09:04:42.004Z,36.65
2019-02-06T09:07:40.239Z,40.55
2019-02-06T09:10:35.815Z,43.75
2019-02-06T09:13:26.013Z,37.00
2019-02-06T09:16:15.746Z,43.10
2019-02-06T09:19:09.799Z,43.00
2019-02-06T09:21:39.675Z,38.25
2019-02-06T09:24:09.527Z,36.08
2019-02-06T09:26:59.533Z,33.23
2019-02-06T09:29:49.175Z,38.25
2019-02-06T09:32:38.896Z,36.60
2019-02-06T09:35:08.906Z,44.15
2019-02-06T09:40:28.533Z,29.42
2019-02-06T09:43:18.014Z,30.48
2019-02-06T09:45:48.611Z,40.65
2019-02-06T09:48:18.642Z,29.90
2019-02-06T09:51:08.205Z,37.08
2019-02-06T09:54:09.537Z,38.42
2019-02-06T09:57:01.088Z,33.20
2019-02-06T09:59:31.036Z,37.17
2019-02-06T10:02:01.089Z,29.32
2019-02-06T10:04:30.905Z,32.00
2019-02-06T10:07:20.330Z,28.80
2019-02-06T10:10:19.942Z,34.25
2019-02-06T10:12:49.981Z,23.80
2019-02-06T10:15:23.073Z,34.83
2019-02-06T10:17:54.445Z,56.65
2019-02-06T10:20:33.480Z,53.90
2019-02-06T10:23:23.907Z,38.98
2019-02-06T10:25:53.912Z,42.33
2019-02-06T10:28:24.634Z,39.60
2019-02-06T10:30:54.663Z,51.25
2019-02-06T10:33:24.656Z,39.05
2019-02-06T10:36:14.439Z,56.02
2019-02-06T10:38:45.022Z,50.30
2019-02-06T10:41:15.151Z,49.65
2019-02-06T10:43:46.087Z,48.17
2019-02-06T10:46:18.310Z,52.50
2019-02-06T10:49:08.050Z,42.73
2019-02-06T10:51:37.983Z,46.98
2019-02-06T10:54:27.349Z,56.65
2019-02-06T10:56:57.562Z,52.08
2019-02-06T10:59:28.061Z,47.33
2019-02-06T11:01:58.021Z,47.62
2019-02-06T11:04:28.030Z,51.28
2019-02-06T11:07:17.391Z,58.70
2019-02-06T11:09:47.620Z,42.70
2019-02-06T11:12:37.045Z,51.15
2019-02-06T11:15:09.186Z,40.78
2019-02-06T11:18:01.438Z,30.27
2019-02-06T11:20:52.338Z,33.50
2019-02-06T11:23:23.318Z,26.25
2019-02-06T11:26:12.948Z,35.63
2019-02-06T11:29:02.741Z,33.63
2019-02-06T11:31:52.767Z,23.38
2019-02-06T11:34:43.829Z,33.53
2019-02-06T11:37:34.922Z,28.65
2019-02-06T11:40:10.065Z,29.37
2019-02-06T11:42:40.578Z,28.85
2019-02-06T11:45:14.069Z,26.62
2019-02-06T11:48:05.260Z,24.12
2019-02-06T11:50:56.068Z,34.95
2019-02-06T11:53:45.395Z,27.30
2019-02-06T11:56:15.334Z,20.65
2019-02-06T11:58:45.161Z,33.02
2019-02-06T12:01:38.097Z,42.98
2019-02-06T12:04:08.122Z,38.48
2019-02-06T12:06:57.506Z,53.78
2019-02-06T12:09:48.460Z,41.83
2019-02-06T12:12:37.923Z,51.98
2019-02-06T12:15:37.718Z,41.55
2019-02-06T12:18:27.723Z,52.53
2019-02-06T12:21:18.203Z,44.58
2019-02-06T12:24:27.265Z,36.95
2019-02-06T12:27:36.700Z,37.25
2019-02-06T12:30:29.509Z,46.98
2019-02-06T12:33:18.996Z,32.63
2019-02-06T12:36:08.653Z,54.80
2019-02-06T12:38:59.087Z,41.42
2019-02-06T12:41:48.764Z,44.03
2019-02-06T12:44:38.843Z,33.90
2019-02-06T12:47:09.151Z,39.60
2019-02-06T12:49:59.218Z,38.45
2019-02-06T12:52:49.178Z,45.28
2019-02-06T12:55:38.948Z,32.60
2019-02-06T12:58:28.425Z,34.05
2019-02-06T13:01:17.891Z,38.65
2019-02-06T13:03:47.936Z,35.65
2019-02-06T13:06:18.133Z,36.35
2019-02-06T13:09:09.509Z,36.17
2019-02-06T13:11:58.989Z,35.25
2019-02-06T13:14:49.037Z,30.48
2019-02-06T13:17:38.771Z,38.55
2019-02-06T13:20:30.189Z,37.93
2019-02-06T13:23:19.755Z,35.90
2019-02-06T13:26:09.758Z,26.52
2019-02-06T13:28:59.677Z,34.58
2019-02-06T13:31:49.811Z,33.15
2019-02-06T13:34:19.974Z,38.13
2019-02-06T13:36:50.233Z,36.70
2019-02-06T13:39:20.362Z,42.55
2019-02-06T13:41:50.590Z,37.20
2019-02-06T13:44:21.210Z,28.38
2019-02-06T13:47:06.419Z,32.20
2019-02-06T13:49:56.489Z,35.68
2019-02-06T13:52:34.352Z,32.05
2019-02-06T13:55:06.788Z,26.80
2019-02-06T13:57:56.396Z,31.25
2019-02-06T14:00:46.267Z,30.05
2019-02-06T14:03:16.242Z,25.37
2019-02-06T14:05:47.070Z,25.88
2019-02-06T14:08:17.820Z,24.67
2019-02-06T14:11:07.548Z,30.35
2019-02-06T14:13:37.910Z,35.38
2019-02-06T14:16:27.328Z,20.60
2019-02-06T14:19:17.289Z,26.68
2019-02-06T14:22:06.668Z,25.08
2019-02-06T14:25:40.790Z,32.90
2019-02-06T14:31:51.554Z,32.25
2019-02-06T14:38:27.846Z,25.30
2019-02-06T14:44:34.900Z,24.20
2019-02-06T14:51:31.286Z,28.80
2019-02-06T14:57:48.662Z,24.80
2019-02-06T15:00:59.871Z,25.65
2019-02-06T15:03:58.795Z,30.72
2019-02-06T15:07:28.823Z,25.62
2019-02-06T15:13:52.851Z,16.80
2019-02-06T15:17:21.187Z,16.85
2019-02-06T15:20:13.205Z,14.85
2019-02-06T15:26:40.252Z,13.93
2019-02-06T15:29:52.998Z,11.78
2019-02-06T15:45:52.410Z,12.88
2019-02-06T15:58:06.933Z,29.45
2019-02-06T16:01:43.980Z,20.10
2019-02-06T16:08:20.486Z,19.48
2019-02-06T16:11:52.195Z,20.62
2019-02-06T16:15:07.579Z,19.67
2019-02-06T16:18:56.867Z,25.92
2019-02-06T16:22:10.851Z,23.10
2019-02-06T16:25:03.201Z,23.52
2019-02-06T16:28:19.241Z,29.80
2019-02-06T16:31:40.735Z,26.50
2019-02-06T16:34:50.691Z,22.52
2019-02-06T16:38:02.682Z,23.98
2019-02-06T16:43:47.211Z,23.80
2019-02-06T16:50:19.855Z,34.20
2019-02-06T16:53:49.302Z,27.62
2019-02-06T17:00:35.464Z,30.12
2019-02-06T17:07:20.615Z,35.95
2019-02-06T17:10:37.852Z,35.05
2019-02-06T17:13:53.001Z,36.95
2019-02-06T17:17:08.386Z,31.93
2019-02-06T17:20:52.917Z,29.85
2019-02-06T17:44:37.758Z,30.95
2019-02-06T17:47:51.738Z,34.38
2019-02-06T17:51:20.616Z,33.30
2019-02-06T17:54:39.890Z,33.60
2019-02-06T17:57:15.628Z,39.75
2019-02-06T18:00:13.129Z,31.20
2019-02-06T18:03:04.086Z,33.80
2019-02-06T18:05:53.791Z,37.55
2019-02-06T18:08:43.538Z,44.33
2019-02-06T18:11:13.670Z,30.95
2019-02-06T18:13:43.756Z,31.02
2019-02-06T18:16:21.022Z,32.45
2019-02-06T18:19:04.581Z,36.50
2019-02-06T18:22:26.198Z,36.75
2019-02-06T18:25:17.580Z,35.35
2019-02-06T18:28:07.353Z,30.43
2019-02-06T18:33:34.027Z,39.20
2019-02-06T18:36:04.770Z,33.98
2019-02-06T18:38:46.369Z,44.13
2019-02-06T18:41:28.292Z,42.25
2019-02-06T18:46:58.764Z,37.80
2019-02-06T18:49:48.535Z,43.02
2019-02-06T18:52:37.994Z,41.10
2019-02-06T18:55:27.864Z,52.95
2019-02-06T18:57:58.254Z,48.40
2019-02-06T19:00:32.297Z,45.85
2019-02-06T19:03:26.681Z,76.10
2019-02-06T19:06:35.660Z,60.33
2019-02-06T19:09:14.778Z,60.33
2019-02-06T19:11:45.669Z,56.55
2019-02-06T19:14:16.865Z,57.48
2019-02-06T19:16:47.690Z,60.65
2019-02-06T19:22:41.693Z,60.90
2019-02-06T19:25:31.298Z,51.15
2019-02-06T19:28:01.429Z,55.28
2019-02-06T19:30:34.948Z,64.70
2019-02-06T19:33:24.594Z,64.82
2019-02-06T19:35:56.103Z,64.07
2019-02-06T19:38:46.222Z,63.13
2019-02-06T19:41:36.034Z,61.85
2019-02-06T19:44:25.511Z,72.70
2019-02-06T19:47:08.610Z,74.55
2019-02-06T19:49:58.800Z,60.38
2019-02-06T19:52:29.080Z,56.50
2019-02-06T19:55:00.015Z,62.88
2019-02-06T19:57:55.742Z,64.27
2019-02-06T20:00:48.245Z,49.85
2019-02-06T20:03:37.932Z,56.55
2019-02-06T20:06:27.534Z,65.37
2019-02-06T20:09:17.441Z,64.70
2019-02-06T20:12:07.590Z,73.52
2019-02-06T20:14:57.001Z,67.65
2019-02-06T20:17:47.143Z,66.53
2019-02-06T20:20:38.272Z,62.55
2019-02-06T20:23:27.892Z,63.68
2019-02-06T20:29:31.652Z,67.47
2019-02-06T20:35:15.697Z,68.65
2019-02-06T20:38:07.000Z,68.95
2019-02-06T20:40:37.857Z,68.85
2019-02-06T20:49:02.002Z,73.72
2019-02-06T20:51:32.294Z,55.83
2019-02-06T20:54:02.528Z,69.50
2019-02-06T20:56:33.083Z,80.67
2019-02-06T20:59:22.744Z,68.33
2019-02-06T21:02:12.574Z,71.80
2019-02-06T21:05:03.624Z,71.35
2019-02-06T21:10:42.994Z,76.22
2019-02-06T21:16:28.478Z,66.07
2019-02-06T21:19:18.249Z,80.60
2019-02-06T21:21:49.039Z,62.10
2019-02-06T21:24:39.193Z,79.05
2019-02-06T21:27:28.997Z,58.75
2019-02-06T21:30:00.220Z,75.52
2019-02-06T21:32:31.550Z,71.55
2019-02-06T21:35:07.220Z,69.45
2019-02-06T21:37:37.854Z,63.63
2019-02-06T21:40:22.077Z,66.30
2019-02-06T21:43:12.219Z,73.35
2019-02-06T21:45:44.692Z,73.17
2019-02-06T21:48:14.960Z,76.00
2019-02-06T21:50:44.991Z,62.33
2019-02-06T21:53:34.985Z,61.75
2019-02-06T21:56:05.601Z,71.97
2019-02-06T21:58:59.587Z,79.17
2019-02-06T22:01:30.334Z,69.62
2019-02-06T22:04:00.845Z,89.03
2019-02-06T22:06:50.517Z,69.25
2019-02-06T22:09:24.382Z,62.60
2019-02-06T22:12:14.222Z,75.95
2019-02-06T22:14:44.835Z,75.47
2019-02-06T22:17:15.424Z,64.67
2019-02-06T22:20:05.471Z,69.60
2019-02-06T22:22:35.795Z,58.83
2019-02-06T22:25:06.501Z,70.47
2019-02-06T22:27:55.889Z,60.23
2019-02-06T22:30:45.507Z,65.97
2019-02-06T22:33:15.687Z,60.15
2019-02-06T22:36:05.502Z,58.78
2019-02-06T22:54:32.362Z,70.30
2019-02-06T23:03:12.479Z,63.52
2019-02-06T23:14:56.531Z,89.03
2019-02-06T23:17:26.433Z,66.10
2019-02-06T23:23:17.673Z,64.07
2019-02-06T23:26:07.366Z,56.37
2019-02-06T23:28:40.806Z,64.82
2019-02-06T23:32:46.254Z,66.20
2019-02-06T23:35:57.762Z,58.87
2019-02-06T23:39:27.703Z,53.00
2019-02-06T23:41:57.885Z,53.60
2019-02-06T23:44:29.297Z,54.13
2019-02-06T23:47:38.187Z,51.83
2019-02-06T23:50:28.084Z,62.20
2019-02-06T23:56:19.815Z,61.68
2019-02-06T23:59:13.432Z,51.65
